createdAt,value
2022-07-26T00:01:48.845Z,20.49
2022-07-26T00:04:16.929Z,20.27
2022-07-26T00:06:44.833Z,20.46
2022-07-26T00:09:37.597Z,20.43
2022-07-26T00:15:46.339Z,20.29
2022-07-26T00:18:15.450Z,20.04
2022-07-26T00:21:07.668Z,20.23
2022-07-26T00:23:36.230Z,20.18
2022-07-26T00:26:03.816Z,20.16
2022-07-26T00:28:31.590Z,20.12
2022-07-26T00:30:58.998Z,19.99
2022-07-26T00:33:27.318Z,19.99
2022-07-26T00:35:54.388Z,19.89
2022-07-26T00:38:21.529Z,20.01
2022-07-26T00:40:48.524Z,19.80
2022-07-26T00:43:15.645Z,19.74
2022-07-26T00:46:08.045Z,19.95
2022-07-26T00:48:35.793Z,19.89
2022-07-26T00:51:03.196Z,19.70
2022-07-26T00:53:33.786Z,19.60
2022-07-26T00:56:01.597Z,19.81
2022-07-26T00:58:28.874Z,19.66
2022-07-26T01:00:56.604Z,19.81
2022-07-26T01:03:24.049Z,19.79
2022-07-26T01:05:58.798Z,19.83
2022-07-26T01:08:26.366Z,19.88
2022-07-26T01:10:55.133Z,19.76
2022-07-26T01:13:24.984Z,19.70
2022-07-26T01:15:53.413Z,19.69
2022-07-26T01:18:20.894Z,19.86
2022-07-26T01:20:53.681Z,19.58
2022-07-26T01:23:46.046Z,19.72
2022-07-26T01:26:14.526Z,19.79
2022-07-26T01:28:43.208Z,19.87
2022-07-26T01:31:12.361Z,19.70
2022-07-26T01:33:41.444Z,19.70
2022-07-26T01:36:09.261Z,19.79
2022-07-26T01:38:36.255Z,19.61
2022-07-26T01:41:03.393Z,19.77
2022-07-26T01:43:30.411Z,19.75
2022-07-26T01:45:58.163Z,19.72
2022-07-26T01:48:26.634Z,19.58
2022-07-26T01:50:54.573Z,19.54
2022-07-26T01:53:24.599Z,19.77
2022-07-26T01:55:52.811Z,19.59
2022-07-26T01:58:22.571Z,19.50
2022-07-26T02:00:51.004Z,19.53
2022-07-26T02:03:19.022Z,19.80
2022-07-26T02:05:46.951Z,19.69
2022-07-26T02:08:14.587Z,19.71
2022-07-26T02:11:02.573Z,19.66
2022-07-26T02:13:37.119Z,19.53
2022-07-26T02:16:06.792Z,19.62
2022-07-26T02:18:34.829Z,19.62
2022-07-26T02:21:03.392Z,19.33
2022-07-26T02:23:31.166Z,19.31
2022-07-26T02:25:58.982Z,19.49
2022-07-26T02:28:28.032Z,19.49
2022-07-26T02:30:55.973Z,19.43
2022-07-26T02:33:24.489Z,19.42
2022-07-26T02:35:51.604Z,19.26
2022-07-26T02:38:18.715Z,19.39
2022-07-26T02:40:47.183Z,19.38
2022-07-26T02:43:14.601Z,19.30
2022-07-26T02:48:33.868Z,19.06
2022-07-26T02:51:01.494Z,19.13
2022-07-26T02:53:32.392Z,18.92
2022-07-26T02:56:01.083Z,18.99
2022-07-26T02:58:28.325Z,19.06
2022-07-26T03:00:55.873Z,18.91
2022-07-26T03:03:25.837Z,18.74
2022-07-26T03:05:53.556Z,19.14
2022-07-26T03:08:21.298Z,18.87
2022-07-26T03:10:48.962Z,18.99
2022-07-26T03:13:16.728Z,19.06
2022-07-26T03:15:44.455Z,19.13
2022-07-26T03:18:12.582Z,19.06
2022-07-26T03:21:04.509Z,19.16
2022-07-26T03:23:33.818Z,19.02
2022-07-26T03:26:02.625Z,19.08
2022-07-26T03:28:32.821Z,19.12
2022-07-26T03:31:01.214Z,19.11
2022-07-26T03:33:29.827Z,19.16
2022-07-26T03:35:56.970Z,19.15
2022-07-26T03:38:25.074Z,19.09
2022-07-26T03:40:52.610Z,19.11
2022-07-26T03:43:23.254Z,19.08
2022-07-26T03:45:54.751Z,18.97
2022-07-26T03:48:22.865Z,19.00
2022-07-26T03:50:50.104Z,19.07
2022-07-26T03:53:17.168Z,19.06
2022-07-26T03:56:03.486Z,18.93
2022-07-26T03:58:31.076Z,19.12
2022-07-26T04:01:29.499Z,19.09
2022-07-26T04:03:57.500Z,19.09
2022-07-26T04:06:50.509Z,19.04
2022-07-26T04:09:22.716Z,19.06
2022-07-26T04:12:40.679Z,19.20
2022-07-26T04:15:09.721Z,19.00
2022-07-26T04:17:41.487Z,19.06
2022-07-26T04:20:11.764Z,19.19
2022-07-26T04:22:45.205Z,19.07
2022-07-26T04:25:13.192Z,19.11
2022-07-26T04:27:40.554Z,19.25
2022-07-26T04:30:14.412Z,19.24
2022-07-26T04:33:07.390Z,19.29
2022-07-26T04:35:35.877Z,19.20
2022-07-26T04:38:04.345Z,19.34
2022-07-26T04:40:40.837Z,19.27
2022-07-26T04:43:33.771Z,19.40
2022-07-26T04:46:01.863Z,19.42
2022-07-26T04:48:30.097Z,19.45
2022-07-26T04:50:57.683Z,19.38
2022-07-26T04:53:25.006Z,19.40
2022-07-26T04:55:52.547Z,19.53
2022-07-26T04:58:19.771Z,19.56
2022-07-26T05:01:09.067Z,19.59
2022-07-26T05:04:00.047Z,19.50
2022-07-26T05:06:52.158Z,19.60
2022-07-26T05:09:44.190Z,19.49
2022-07-26T05:13:04.157Z,19.77
2022-07-26T05:15:56.390Z,19.82
2022-07-26T05:21:15.617Z,19.86
2022-07-26T05:23:43.537Z,19.81
2022-07-26T05:26:12.409Z,19.99
2022-07-26T05:28:40.179Z,20.14
2022-07-26T05:31:10.907Z,19.97
2022-07-26T05:33:38.320Z,20.22
2022-07-26T05:36:05.549Z,20.22
2022-07-26T05:38:32.637Z,20.36
2022-07-26T05:41:25.284Z,20.36
2022-07-26T05:43:52.910Z,20.53
2022-07-26T05:46:20.608Z,20.60
2022-07-26T05:48:48.357Z,20.81
2022-07-26T05:51:15.703Z,20.89
2022-07-26T05:53:42.966Z,20.77
2022-07-26T05:56:10.551Z,21.08
2022-07-26T05:59:03.258Z,21.02
2022-07-26T06:01:56.929Z,21.32
2022-07-26T06:04:26.986Z,21.18
2022-07-26T06:06:55.822Z,21.33
2022-07-26T06:09:48.931Z,21.61
2022-07-26T06:15:14.970Z,21.80
2022-07-26T06:17:43.588Z,21.78
2022-07-26T06:20:12.423Z,21.98
2022-07-26T06:22:40.107Z,22.11
2022-07-26T06:25:08.607Z,22.18
2022-07-26T06:30:29.868Z,22.29
2022-07-26T06:32:58.348Z,22.30
2022-07-26T06:35:29.373Z,22.52
2022-07-26T06:38:00.815Z,22.60
2022-07-26T06:40:28.110Z,22.59
2022-07-26T06:42:55.220Z,22.64
2022-07-26T06:48:47.375Z,23.07
2022-07-26T06:51:21.160Z,23.00
2022-07-26T06:53:48.473Z,23.19
2022-07-26T06:56:18.719Z,23.41
2022-07-26T06:58:47.746Z,23.36
2022-07-26T07:01:58.084Z,23.57
2022-07-26T07:04:30.156Z,23.48
2022-07-26T07:07:05.129Z,23.64
2022-07-26T07:09:34.185Z,23.77
2022-07-26T07:12:29.056Z,23.84
2022-07-26T07:14:56.304Z,23.61
2022-07-26T07:17:23.688Z,24.08
2022-07-26T07:19:51.332Z,24.12
2022-07-26T07:22:18.821Z,24.20
2022-07-26T07:24:46.752Z,24.26
2022-07-26T07:27:16.173Z,24.18
2022-07-26T07:29:44.086Z,24.45
2022-07-26T07:32:18.139Z,24.44
2022-07-26T07:34:48.990Z,24.63
2022-07-26T07:37:17.883Z,24.64
2022-07-26T07:39:50.430Z,24.48
2022-07-26T07:42:19.537Z,24.56
2022-07-26T07:44:47.336Z,24.84
2022-07-26T07:48:05.739Z,24.82
2022-07-26T07:50:35.455Z,24.86
2022-07-26T07:53:27.851Z,24.87
2022-07-26T07:55:59.490Z,24.88
2022-07-26T07:58:27.989Z,24.75
2022-07-26T08:04:11.865Z,24.99
2022-07-26T08:06:41.331Z,24.75
2022-07-26T08:09:35.953Z,25.02
2022-07-26T08:12:29.017Z,24.84
2022-07-26T08:15:07.378Z,24.76
2022-07-26T08:17:40.381Z,24.90
2022-07-26T08:20:15.965Z,24.94
2022-07-26T08:22:43.849Z,25.14
2022-07-26T08:25:35.849Z,25.23
2022-07-26T08:28:47.259Z,25.28
2022-07-26T08:31:40.378Z,25.28
2022-07-26T08:34:34.750Z,25.41
2022-07-26T08:37:16.400Z,25.39
2022-07-26T08:39:45.527Z,25.47
2022-07-26T08:42:23.291Z,25.67
2022-07-26T08:44:52.135Z,25.77
2022-07-26T08:47:38.077Z,25.76
2022-07-26T08:50:14.694Z,25.89
2022-07-26T08:52:42.809Z,25.79
2022-07-26T08:55:16.212Z,25.89
2022-07-26T08:57:43.553Z,25.92
2022-07-26T09:00:25.770Z,26.00
2022-07-26T09:02:54.155Z,26.14
2022-07-26T09:06:11.855Z,26.34
2022-07-26T09:08:39.914Z,26.35
2022-07-26T09:11:26.359Z,26.55
2022-07-26T09:14:07.767Z,26.22
2022-07-26T09:17:00.543Z,26.82
2022-07-26T09:19:29.376Z,26.88
2022-07-26T09:22:10.124Z,26.84
2022-07-26T09:24:44.161Z,26.95
2022-07-26T09:27:15.664Z,26.96
2022-07-26T09:30:58.681Z,27.13
2022-07-26T09:33:27.393Z,27.16
2022-07-26T09:36:03.065Z,27.15
2022-07-26T09:38:43.180Z,27.29
2022-07-26T09:41:21.010Z,27.29
2022-07-26T09:43:53.684Z,27.31
2022-07-26T09:46:26.344Z,27.49
2022-07-26T09:49:11.885Z,27.50
2022-07-26T09:52:08.673Z,27.49
2022-07-26T09:55:01.488Z,27.66
2022-07-26T09:57:54.938Z,27.66
2022-07-26T10:01:39.529Z,27.85
2022-07-26T10:04:32.606Z,28.00
2022-07-26T10:07:03.239Z,27.98
2022-07-26T10:09:41.206Z,27.94
2022-07-26T10:15:04.906Z,27.95
2022-07-26T10:17:39.181Z,28.21
2022-07-26T10:23:47.153Z,28.36
2022-07-26T10:26:36.401Z,28.47
2022-07-26T10:32:40.192Z,28.23
2022-07-26T10:35:31.263Z,28.47
2022-07-26T10:38:10.239Z,28.25
2022-07-26T10:40:40.006Z,28.53
2022-07-26T10:43:37.743Z,28.59
2022-07-26T10:46:23.981Z,28.69
2022-07-26T10:49:04.295Z,28.74
2022-07-26T10:51:40.206Z,28.74
2022-07-26T10:54:12.177Z,28.92
2022-07-26T10:56:41.149Z,28.89
2022-07-26T10:59:08.713Z,29.11
2022-07-26T11:01:42.215Z,29.12
2022-07-26T11:04:21.054Z,29.11
2022-07-26T11:06:48.374Z,29.24
2022-07-26T11:09:18.603Z,29.14
2022-07-26T11:11:48.975Z,29.18
2022-07-26T11:14:47.939Z,29.30
2022-07-26T11:17:30.389Z,29.30
2022-07-26T11:19:59.061Z,29.55
2022-07-26T11:22:36.699Z,29.61
2022-07-26T11:25:05.638Z,29.46
2022-07-26T11:27:37.195Z,29.56
2022-07-26T11:33:22.506Z,29.49
2022-07-26T11:35:52.973Z,29.79
2022-07-26T11:38:20.799Z,29.86
2022-07-26T11:40:48.215Z,29.74
2022-07-26T11:43:16.026Z,29.92
2022-07-26T11:45:51.800Z,29.65
2022-07-26T11:48:50.493Z,29.87
2022-07-26T11:51:20.688Z,29.96
2022-07-26T11:54:13.500Z,29.91
2022-07-26T11:56:56.120Z,29.85
2022-07-26T11:59:49.043Z,29.72
2022-07-26T12:02:16.801Z,29.65
2022-07-26T12:04:45.037Z,29.69
2022-07-26T12:07:20.428Z,29.56
2022-07-26T12:09:48.017Z,29.50
2022-07-26T12:12:42.879Z,29.47
2022-07-26T12:15:35.774Z,29.39
2022-07-26T12:18:04.451Z,29.15
2022-07-26T12:20:31.669Z,29.17
2022-07-26T12:23:05.518Z,29.21
2022-07-26T12:25:33.714Z,29.23
2022-07-26T12:28:01.245Z,29.07
2022-07-26T12:33:27.056Z,28.98
2022-07-26T12:36:01.233Z,28.91
2022-07-26T12:41:40.532Z,29.10
2022-07-26T12:44:13.173Z,28.92
2022-07-26T12:46:41.477Z,28.93
2022-07-26T12:49:08.992Z,28.71
2022-07-26T12:51:37.552Z,28.84
2022-07-26T12:54:06.752Z,28.32
2022-07-26T12:56:35.095Z,28.58
2022-07-26T12:59:02.446Z,28.79
2022-07-26T13:01:55.353Z,28.78
2022-07-26T13:04:22.986Z,28.73
2022-07-26T13:06:50.317Z,28.74
2022-07-26T13:09:17.774Z,28.55
2022-07-26T13:11:45.188Z,28.50
2022-07-26T13:14:38.626Z,28.54
2022-07-26T13:17:32.429Z,28.56
2022-07-26T13:20:00.936Z,28.45
2022-07-26T13:22:29.226Z,28.55
2022-07-26T13:25:22.787Z,28.58
2022-07-26T13:27:52.241Z,28.50
2022-07-26T13:31:09.344Z,28.44
2022-07-26T13:33:39.566Z,28.26
2022-07-26T13:36:06.905Z,28.19
2022-07-26T13:38:34.897Z,27.81
2022-07-26T13:41:06.826Z,28.41
2022-07-26T13:44:00.254Z,28.44
2022-07-26T13:46:33.516Z,28.47
2022-07-26T13:49:04.899Z,28.30
2022-07-26T13:51:53.215Z,28.41
2022-07-26T13:54:23.687Z,28.41
2022-07-26T13:56:51.856Z,28.42
2022-07-26T13:59:45.719Z,28.41
2022-07-26T14:02:13.399Z,28.40
2022-07-26T14:04:41.038Z,28.28
2022-07-26T14:07:08.464Z,28.22
2022-07-26T14:09:39.107Z,28.12
2022-07-26T14:12:07.256Z,28.04
2022-07-26T14:14:36.326Z,27.84
2022-07-26T14:17:04.682Z,27.66
2022-07-26T14:19:32.111Z,27.93
2022-07-26T14:22:00.658Z,27.65
2022-07-26T14:24:29.312Z,27.92
2022-07-26T14:27:22.696Z,27.97
2022-07-26T14:30:40.646Z,27.91
2022-07-26T14:33:33.393Z,27.89
2022-07-26T14:36:02.950Z,27.71
2022-07-26T14:38:31.640Z,27.75
2022-07-26T14:41:02.348Z,27.75
2022-07-26T14:43:30.477Z,27.85
2022-07-26T14:45:58.516Z,27.78
2022-07-26T14:48:52.787Z,27.65
2022-07-26T14:51:14.579Z,27.60
2022-07-26T14:54:08.836Z,27.67
2022-07-26T14:56:37.444Z,27.66
2022-07-26T14:59:32.883Z,27.69
2022-07-26T15:02:05.489Z,27.64
2022-07-26T15:04:33.753Z,27.65
2022-07-26T15:07:00.856Z,27.59
2022-07-26T15:09:28.806Z,27.55
2022-07-26T15:11:55.955Z,27.41
2022-07-26T15:14:24.411Z,27.53
2022-07-26T15:16:51.748Z,27.38
2022-07-26T15:19:25.373Z,27.39
2022-07-26T15:21:55.346Z,27.25
2022-07-26T15:24:24.316Z,27.39
2022-07-26T15:26:52.166Z,27.44
2022-07-26T15:29:20.751Z,27.38
2022-07-26T15:31:49.319Z,27.48
2022-07-26T15:34:41.700Z,27.49
2022-07-26T15:40:01.992Z,27.39
2022-07-26T15:42:36.381Z,27.34
2022-07-26T15:45:09.536Z,27.19
2022-07-26T15:48:03.167Z,27.28
2022-07-26T15:50:53.178Z,27.39
2022-07-26T15:56:37.119Z,27.30
2022-07-26T15:59:07.356Z,27.22
2022-07-26T16:01:35.889Z,27.25
2022-07-26T16:04:05.157Z,27.27
2022-07-26T16:06:33.867Z,27.20
2022-07-26T16:09:26.157Z,27.18
2022-07-26T16:11:53.753Z,27.00
2022-07-26T16:14:25.941Z,26.99
2022-07-26T16:16:54.351Z,27.02
2022-07-26T16:19:21.989Z,27.24
2022-07-26T16:21:50.607Z,27.15
2022-07-26T16:24:19.330Z,26.98
2022-07-26T16:27:12.147Z,27.08
2022-07-26T16:29:41.972Z,26.95
2022-07-26T16:32:11.957Z,26.94
2022-07-26T16:34:40.937Z,26.91
2022-07-26T16:37:08.195Z,27.00
2022-07-26T16:39:35.197Z,26.99
2022-07-26T16:42:06.799Z,26.69
2022-07-26T16:44:36.595Z,26.82
2022-07-26T16:47:05.076Z,26.80
2022-07-26T16:49:33.853Z,26.85
2022-07-26T16:52:01.163Z,26.86
2022-07-26T16:54:28.765Z,26.90
2022-07-26T16:56:57.998Z,26.92
2022-07-26T16:59:50.179Z,26.94
2022-07-26T17:02:18.599Z,26.77
2022-07-26T17:04:46.384Z,26.80
2022-07-26T17:07:29.133Z,26.91
2022-07-26T17:09:57.232Z,26.80
2022-07-26T17:12:52.837Z,26.88
2022-07-26T17:18:16.848Z,26.76
2022-07-26T17:21:08.443Z,26.65
2022-07-26T17:23:36.734Z,26.69
2022-07-26T17:26:06.224Z,26.52
2022-07-26T17:28:34.554Z,26.62
2022-07-26T17:31:02.126Z,26.69
2022-07-26T17:33:30.226Z,26.67
2022-07-26T17:36:02.164Z,26.47
2022-07-26T17:38:31.805Z,26.64
2022-07-26T17:40:58.740Z,26.63
2022-07-26T17:43:36.752Z,26.70
2022-07-26T17:46:05.570Z,26.54
2022-07-26T17:48:33.902Z,26.66
2022-07-26T17:51:01.209Z,26.59
2022-07-26T17:54:18.223Z,26.66
2022-07-26T17:56:46.085Z,26.55
2022-07-26T17:59:14.615Z,26.55
2022-07-26T18:02:08.215Z,26.63
2022-07-26T18:04:36.492Z,26.67
2022-07-26T18:07:03.771Z,26.68
2022-07-26T18:09:31.207Z,26.41
2022-07-26T18:11:59.174Z,26.49
2022-07-26T18:14:51.063Z,26.35
2022-07-26T18:17:18.973Z,26.15
2022-07-26T18:19:46.540Z,26.11
2022-07-26T18:22:14.579Z,26.20
2022-07-26T18:25:07.986Z,26.13
2022-07-26T18:27:40.678Z,26.07
2022-07-26T18:30:10.979Z,25.97
2022-07-26T18:32:39.525Z,25.89
2022-07-26T18:35:08.422Z,25.99
2022-07-26T18:37:35.610Z,25.97
2022-07-26T18:40:02.653Z,25.86
2022-07-26T18:42:29.806Z,25.72
2022-07-26T18:44:57.471Z,25.83
2022-07-26T18:47:26.735Z,25.53
2022-07-26T18:49:54.375Z,25.67
2022-07-26T18:52:28.666Z,25.53
2022-07-26T18:55:24.962Z,25.60
2022-07-26T18:57:52.882Z,25.47
2022-07-26T19:00:22.824Z,25.54
2022-07-26T19:02:52.374Z,25.48
2022-07-26T19:05:24.227Z,25.44
2022-07-26T19:07:52.704Z,25.23
2022-07-26T19:10:20.416Z,25.34
2022-07-26T19:12:48.861Z,25.32
2022-07-26T19:15:16.922Z,25.17
2022-07-26T19:17:45.310Z,25.29
2022-07-26T19:20:36.999Z,25.25
2022-07-26T19:23:31.299Z,25.01
2022-07-26T19:26:24.543Z,25.10
2022-07-26T19:28:51.862Z,25.08
2022-07-26T19:31:20.271Z,24.89
2022-07-26T19:33:48.244Z,25.00
2022-07-26T19:36:18.199Z,24.97
2022-07-26T19:38:53.125Z,24.72
2022-07-26T19:41:20.164Z,24.86
2022-07-26T19:43:47.812Z,24.84
2022-07-26T19:46:15.474Z,24.69
2022-07-26T19:48:43.649Z,24.67
2022-07-26T19:51:11.141Z,24.70
2022-07-26T19:56:55.186Z,24.62
2022-07-26T19:59:48.467Z,24.62
2022-07-26T20:02:16.773Z,24.55
2022-07-26T20:04:46.256Z,24.39
2022-07-26T20:07:19.862Z,24.18
2022-07-26T20:09:48.616Z,24.40
2022-07-26T20:12:43.058Z,24.38
2022-07-26T20:15:12.256Z,24.14
2022-07-26T20:17:41.457Z,24.24
2022-07-26T20:20:10.412Z,24.06
2022-07-26T20:22:38.432Z,24.11
2022-07-26T20:25:07.527Z,23.98
2022-07-26T20:27:37.370Z,24.13
2022-07-26T20:30:06.891Z,23.87
2022-07-26T20:32:34.218Z,24.05
2022-07-26T20:35:01.970Z,23.94
2022-07-26T20:37:29.038Z,23.75
2022-07-26T20:39:56.240Z,23.73
2022-07-26T20:42:23.649Z,23.85
2022-07-26T20:44:53.053Z,23.60
2022-07-26T20:47:45.256Z,23.80
2022-07-26T20:50:13.266Z,23.59
2022-07-26T20:53:30.157Z,23.71
2022-07-26T20:56:22.695Z,23.62
2022-07-26T20:58:50.380Z,23.53
2022-07-26T21:01:17.995Z,23.53
2022-07-26T21:03:45.407Z,23.60
2022-07-26T21:06:13.091Z,23.40
2022-07-26T21:08:41.910Z,23.44
2022-07-26T21:11:08.933Z,23.29
2022-07-26T21:13:36.928Z,23.17
2022-07-26T21:16:04.643Z,23.27
2022-07-26T21:18:38.555Z,23.36
2022-07-26T21:21:06.646Z,23.07
2022-07-26T21:23:34.762Z,22.96
2022-07-26T21:26:26.893Z,23.19
2022-07-26T21:28:54.398Z,23.26
2022-07-26T21:31:23.979Z,22.99
2022-07-26T21:34:16.174Z,23.21
2022-07-26T21:36:43.876Z,23.17
2022-07-26T21:39:11.755Z,22.88
2022-07-26T21:41:40.263Z,23.15
2022-07-26T21:44:07.218Z,23.13
2022-07-26T21:46:35.385Z,23.09
2022-07-26T21:49:03.554Z,22.98
2022-07-26T21:51:31.419Z,23.10
2022-07-26T21:54:22.914Z,23.04
2022-07-26T21:56:51.002Z,22.99
2022-07-26T21:59:43.226Z,22.97
2022-07-26T22:02:11.228Z,22.86
2022-07-26T22:04:38.872Z,22.86
2022-07-26T22:07:06.826Z,22.87
2022-07-26T22:09:34.848Z,22.81
2022-07-26T22:12:02.258Z,22.81
2022-07-26T22:14:53.955Z,22.78
2022-07-26T22:17:21.992Z,22.74
2022-07-26T22:19:49.457Z,22.70
2022-07-26T22:22:17.573Z,22.64
2022-07-26T22:24:45.029Z,22.54
2022-07-26T22:27:13.213Z,22.62
2022-07-26T22:29:40.741Z,22.46
2022-07-26T22:32:08.944Z,22.38
2022-07-26T22:34:36.583Z,22.56
2022-07-26T22:37:29.355Z,22.46
2022-07-26T22:39:56.782Z,22.49
2022-07-26T22:42:23.756Z,22.37
2022-07-26T22:44:50.849Z,22.43
2022-07-26T22:47:55.796Z,22.43
2022-07-26T22:50:49.540Z,22.39
2022-07-26T22:54:31.944Z,22.34
2022-07-26T22:56:59.917Z,22.17
2022-07-26T22:59:52.143Z,22.27
2022-07-26T23:02:20.207Z,22.22
2022-07-26T23:04:47.579Z,22.21
2022-07-26T23:07:15.282Z,22.05
2022-07-26T23:09:46.327Z,22.16
2022-07-26T23:12:13.539Z,22.20
2022-07-26T23:15:07.372Z,22.17
2022-07-26T23:17:37.760Z,22.02
2022-07-26T23:20:30.433Z,22.12
2022-07-26T23:22:58.003Z,22.02
2022-07-26T23:25:25.365Z,21.87
2022-07-26T23:27:53.572Z,21.97
2022-07-26T23:30:45.770Z,21.91
2022-07-26T23:33:19.365Z,21.78
2022-07-26T23:36:07.450Z,21.56
2022-07-26T23:38:35.069Z,21.87
2022-07-26T23:41:01.971Z,21.82
2022-07-26T23:43:29.101Z,21.62
2022-07-26T23:45:57.386Z,21.76
2022-07-26T23:48:25.108Z,21.55
2022-07-26T23:50:53.248Z,21.68
2022-07-26T23:56:37.140Z,21.54
2022-07-26T23:59:06.132Z,21.61
